sensor_id;sensor_type;location;lat;lon;timestamp;P1;durP1;ratioP1;P2;durP2;ratioP2
74612;SDS011;63119;51.788;8.824;2023-11-22T00:01:48;6.57;;;3.23;;
74612;SDS011;63119;51.788;8.824;2023-11-22T00:04:14;17.38;;;6.55;;
74612;SDS011;63119;51.788;8.824;2023-11-22T00:06:39;10.67;;;4.97;;
74612;SDS011;63119;51.788;8.824;2023-11-22T00:09:05;9.97;;;5.23;;
74612;SDS011;63119;51.788;8.824;2023-11-22T00:11:30;7.60;;;3.50;;
74612;SDS011;63119;51.788;8.824;2023-11-22T00:13:55;21.23;;;7.47;;
74612;SDS011;63119;51.788;8.824;2023-11-22T00:16:21;14.30;;;5.17;;
74612;SDS011;63119;51.788;8.824;2023-11-22T00:18:46;10.52;;;4.50;;
74612;SDS011;63119;51.788;8.824;2023-11-22T00:21:11;9.27;;;3.47;;
74612;SDS011;63119;51.788;8.824;2023-11-22T00:23:37;4.72;;;2.65;;
74612;SDS011;63119;51.788;8.824;2023-11-22T00:26:02;11.05;;;3.13;;
74612;SDS011;63119;51.788;8.824;2023-11-22T00:28:28;12.57;;;4.80;;
74612;SDS011;63119;51.788;8.824;2023-11-22T00:30:53;15.03;;;5.73;;
74612;SDS011;63119;51.788;8.824;2023-11-22T00:33:19;21.63;;;7.33;;
74612;SDS011;63119;51.788;8.824;2023-11-22T00:35:45;8.40;;;3.60;;
74612;SDS011;63119;51.788;8.824;2023-11-22T00:38:10;7.35;;;3.40;;
74612;SDS011;63119;51.788;8.824;2023-11-22T00:40:35;8.60;;;3.17;;
74612;SDS011;63119;51.788;8.824;2023-11-22T00:43:01;11.73;;;3.87;;
74612;SDS011;63119;51.788;8.824;2023-11-22T00:45:26;20.57;;;6.57;;
74612;SDS011;63119;51.788;8.824;2023-11-22T00:47:51;17.37;;;5.93;;
74612;SDS011;63119;51.788;8.824;2023-11-22T00:50:17;10.50;;;4.80;;
74612;SDS011;63119;51.788;8.824;2023-11-22T00:52:45;15.18;;;6.57;;
74612;SDS011;63119;51.788;8.824;2023-11-22T00:55:11;8.48;;;4.10;;
74612;SDS011;63119;51.788;8.824;2023-11-22T00:57:37;8.70;;;4.28;;
74612;SDS011;63119;51.788;8.824;2023-11-22T01:00:02;9.37;;;3.97;;
74612;SDS011;63119;51.788;8.824;2023-11-22T01:02:29;9.82;;;3.70;;
74612;SDS011;63119;51.788;8.824;2023-11-22T01:04:54;9.13;;;3.38;;
74612;SDS011;63119;51.788;8.824;2023-11-22T01:07:20;9.63;;;4.07;;
74612;SDS011;63119;51.788;8.824;2023-11-22T01:09:45;10.13;;;4.13;;
74612;SDS011;63119;51.788;8.824;2023-11-22T01:12:10;7.27;;;3.43;;
74612;SDS011;63119;51.788;8.824;2023-11-22T01:14:37;7.82;;;3.40;;
74612;SDS011;63119;51.788;8.824;2023-11-22T01:17:02;7.00;;;2.87;;
74612;SDS011;63119;51.788;8.824;2023-11-22T01:19:27;6.43;;;2.73;;
74612;SDS011;63119;51.788;8.824;2023-11-22T01:21:53;5.47;;;2.67;;
74612;SDS011;63119;51.788;8.824;2023-11-22T01:24:18;5.70;;;2.80;;
74612;SDS011;63119;51.788;8.824;2023-11-22T01:26:43;7.97;;;2.83;;
74612;SDS011;63119;51.788;8.824;2023-11-22T01:29:09;8.03;;;3.50;;
74612;SDS011;63119;51.788;8.824;2023-11-22T01:31:36;6.68;;;3.35;;
74612;SDS011;63119;51.788;8.824;2023-11-22T01:34:02;7.77;;;4.00;;
74612;SDS011;63119;51.788;8.824;2023-11-22T01:36:29;6.50;;;3.67;;
74612;SDS011;63119;51.788;8.824;2023-11-22T01:38:54;8.57;;;3.87;;
74612;SDS011;63119;51.788;8.824;2023-11-22T01:41:20;10.07;;;3.70;;
74612;SDS011;63119;51.788;8.824;2023-11-22T01:43:46;13.15;;;5.00;;
74612;SDS011;63119;51.788;8.824;2023-11-22T01:46:21;11.32;;;4.68;;
74612;SDS011;63119;51.788;8.824;2023-11-22T01:48:51;8.85;;;3.63;;
74612;SDS011;63119;51.788;8.824;2023-11-22T01:51:20;9.05;;;4.57;;
74612;SDS011;63119;51.788;8.824;2023-11-22T01:53:47;7.97;;;4.07;;
74612;SDS011;63119;51.788;8.824;2023-11-22T01:56:14;8.35;;;3.80;;
74612;SDS011;63119;51.788;8.824;2023-11-22T01:58:41;9.63;;;4.07;;
74612;SDS011;63119;51.788;8.824;2023-11-22T02:01:06;5.10;;;3.00;;
74612;SDS011;63119;51.788;8.824;2023-11-22T02:03:32;8.65;;;3.65;;
74612;SDS011;63119;51.788;8.824;2023-11-22T02:05:57;4.83;;;2.73;;
74612;SDS011;63119;51.788;8.824;2023-11-22T02:08:23;6.63;;;3.10;;
74612;SDS011;63119;51.788;8.824;2023-11-22T02:10:58;6.17;;;2.80;;
74612;SDS011;63119;51.788;8.824;2023-11-22T02:13:24;6.28;;;2.70;;
74612;SDS011;63119;51.788;8.824;2023-11-22T02:15:49;6.13;;;2.70;;
74612;SDS011;63119;51.788;8.824;2023-11-22T02:18:15;5.80;;;2.78;;
74612;SDS011;63119;51.788;8.824;2023-11-22T02:20:42;7.17;;;3.27;;
74612;SDS011;63119;51.788;8.824;2023-11-22T02:23:08;6.07;;;2.83;;
74612;SDS011;63119;51.788;8.824;2023-11-22T02:25:34;7.32;;;3.13;;
74612;SDS011;63119;51.788;8.824;2023-11-22T02:27:59;6.60;;;2.92;;
74612;SDS011;63119;51.788;8.824;2023-11-22T02:30:24;7.10;;;2.53;;
74612;SDS011;63119;51.788;8.824;2023-11-22T02:32:50;6.05;;;3.15;;
74612;SDS011;63119;51.788;8.824;2023-11-22T02:35:16;8.52;;;3.33;;
74612;SDS011;63119;51.788;8.824;2023-11-22T02:37:42;8.27;;;2.80;;
74612;SDS011;63119;51.788;8.824;2023-11-22T02:40:16;5.85;;;3.15;;
74612;SDS011;63119;51.788;8.824;2023-11-22T02:42:48;6.65;;;2.75;;
74612;SDS011;63119;51.788;8.824;2023-11-22T02:45:15;5.90;;;2.72;;
74612;SDS011;63119;51.788;8.824;2023-11-22T02:47:41;5.82;;;2.65;;
74612;SDS011;63119;51.788;8.824;2023-11-22T02:50:11;7.22;;;2.97;;
74612;SDS011;63119;51.788;8.824;2023-11-22T02:52:37;5.75;;;2.65;;
74612;SDS011;63119;51.788;8.824;2023-11-22T02:55:02;10.27;;;3.05;;
74612;SDS011;63119;51.788;8.824;2023-11-22T02:57:29;5.72;;;2.95;;
74612;SDS011;63119;51.788;8.824;2023-11-22T02:59:56;8.52;;;2.75;;
74612;SDS011;63119;51.788;8.824;2023-11-22T03:02:21;6.03;;;2.57;;
74612;SDS011;63119;51.788;8.824;2023-11-22T03:04:46;5.47;;;2.60;;
74612;SDS011;63119;51.788;8.824;2023-11-22T03:07:11;7.40;;;2.77;;
74612;SDS011;63119;51.788;8.824;2023-11-22T03:09:37;8.63;;;3.13;;
74612;SDS011;63119;51.788;8.824;2023-11-22T03:12:02;7.27;;;2.60;;
74612;SDS011;63119;51.788;8.824;2023-11-22T03:14:28;4.28;;;2.47;;
74612;SDS011;63119;51.788;8.824;2023-11-22T03:16:54;4.68;;;2.78;;
74612;SDS011;63119;51.788;8.824;2023-11-22T03:19:19;7.23;;;2.50;;
74612;SDS011;63119;51.788;8.824;2023-11-22T03:21:45;7.18;;;3.22;;
74612;SDS011;63119;51.788;8.824;2023-11-22T03:24:10;6.80;;;2.90;;
74612;SDS011;63119;51.788;8.824;2023-11-22T03:26:36;5.27;;;2.77;;
74612;SDS011;63119;51.788;8.824;2023-11-22T03:29:01;6.97;;;2.50;;
74612;SDS011;63119;51.788;8.824;2023-11-22T03:31:27;5.45;;;2.70;;
74612;SDS011;63119;51.788;8.824;2023-11-22T03:33:56;7.68;;;3.28;;
74612;SDS011;63119;51.788;8.824;2023-11-22T03:36:22;6.72;;;2.88;;
74612;SDS011;63119;51.788;8.824;2023-11-22T03:38:48;8.05;;;3.03;;
74612;SDS011;63119;51.788;8.824;2023-11-22T03:41:13;4.82;;;2.65;;
74612;SDS011;63119;51.788;8.824;2023-11-22T03:43:38;6.40;;;2.73;;
74612;SDS011;63119;51.788;8.824;2023-11-22T03:46:04;5.37;;;2.87;;
74612;SDS011;63119;51.788;8.824;2023-11-22T03:48:29;5.83;;;3.00;;
74612;SDS011;63119;51.788;8.824;2023-11-22T03:50:54;6.43;;;2.90;;
74612;SDS011;63119;51.788;8.824;2023-11-22T03:53:19;6.20;;;2.60;;
74612;SDS011;63119;51.788;8.824;2023-11-22T03:55:46;5.78;;;3.38;;
74612;SDS011;63119;51.788;8.824;2023-11-22T03:58:12;5.60;;;3.03;;
74612;SDS011;63119;51.788;8.824;2023-11-22T04:00:37;5.60;;;2.40;;
74612;SDS011;63119;51.788;8.824;2023-11-22T04:03:03;7.20;;;3.10;;
74612;SDS011;63119;51.788;8.824;2023-11-22T04:05:28;5.43;;;2.87;;
74612;SDS011;63119;51.788;8.824;2023-11-22T04:07:54;5.90;;;2.88;;
74612;SDS011;63119;51.788;8.824;2023-11-22T04:10:19;5.22;;;2.65;;
74612;SDS011;63119;51.788;8.824;2023-11-22T04:12:46;7.45;;;2.95;;
74612;SDS011;63119;51.788;8.824;2023-11-22T04:15:12;6.35;;;3.20;;
74612;SDS011;63119;51.788;8.824;2023-11-22T04:17:38;12.23;;;3.88;;
74612;SDS011;63119;51.788;8.824;2023-11-22T04:20:06;6.53;;;3.67;;
74612;SDS011;63119;51.788;8.824;2023-11-22T04:22:36;6.25;;;3.72;;
74612;SDS011;63119;51.788;8.824;2023-11-22T04:25:02;7.03;;;3.78;;
74612;SDS011;63119;51.788;8.824;2023-11-22T04:27:27;10.00;;;4.90;;
74612;SDS011;63119;51.788;8.824;2023-11-22T04:29:53;11.70;;;5.07;;
74612;SDS011;63119;51.788;8.824;2023-11-22T04:32:18;8.77;;;5.03;;
74612;SDS011;63119;51.788;8.824;2023-11-22T04:34:44;7.03;;;3.53;;
74612;SDS011;63119;51.788;8.824;2023-11-22T04:37:09;8.03;;;4.67;;
74612;SDS011;63119;51.788;8.824;2023-11-22T04:39:34;9.00;;;4.67;;
74612;SDS011;63119;51.788;8.824;2023-11-22T04:42:00;7.07;;;2.65;;
74612;SDS011;63119;51.788;8.824;2023-11-22T04:44:25;7.23;;;3.27;;
74612;SDS011;63119;51.788;8.824;2023-11-22T04:46:50;11.13;;;4.10;;
74612;SDS011;63119;51.788;8.824;2023-11-22T04:49:16;8.20;;;3.90;;
74612;SDS011;63119;51.788;8.824;2023-11-22T04:51:42;7.80;;;3.22;;
74612;SDS011;63119;51.788;8.824;2023-11-22T04:54:08;7.38;;;3.28;;
74612;SDS011;63119;51.788;8.824;2023-11-22T04:56:33;5.43;;;2.88;;
74612;SDS011;63119;51.788;8.824;2023-11-22T04:58:58;16.10;;;6.90;;
74612;SDS011;63119;51.788;8.824;2023-11-22T05:01:24;18.80;;;8.65;;
74612;SDS011;63119;51.788;8.824;2023-11-22T05:03:50;9.82;;;4.65;;
74612;SDS011;63119;51.788;8.824;2023-11-22T05:06:15;5.95;;;3.25;;
74612;SDS011;63119;51.788;8.824;2023-11-22T05:08:41;9.55;;;4.07;;
74612;SDS011;63119;51.788;8.824;2023-11-22T05:11:07;10.07;;;4.60;;
74612;SDS011;63119;51.788;8.824;2023-11-22T05:13:32;7.97;;;4.10;;
74612;SDS011;63119;51.788;8.824;2023-11-22T05:15:58;9.43;;;4.70;;
74612;SDS011;63119;51.788;8.824;2023-11-22T05:18:23;9.73;;;5.03;;
74612;SDS011;63119;51.788;8.824;2023-11-22T05:20:48;9.60;;;5.07;;
74612;SDS011;63119;51.788;8.824;2023-11-22T05:23:14;10.67;;;5.50;;
74612;SDS011;63119;51.788;8.824;2023-11-22T05:25:39;16.50;;;7.30;;
74612;SDS011;63119;51.788;8.824;2023-11-22T05:28:04;20.03;;;8.43;;
74612;SDS011;63119;51.788;8.824;2023-11-22T05:30:29;17.20;;;6.43;;
74612;SDS011;63119;51.788;8.824;2023-11-22T05:32:55;11.70;;;4.73;;
74612;SDS011;63119;51.788;8.824;2023-11-22T05:35:20;8.57;;;3.85;;
74612;SDS011;63119;51.788;8.824;2023-11-22T05:37:45;7.40;;;3.30;;
74612;SDS011;63119;51.788;8.824;2023-11-22T05:40:11;7.05;;;3.22;;
74612;SDS011;63119;51.788;8.824;2023-11-22T05:42:36;7.93;;;3.15;;
74612;SDS011;63119;51.788;8.824;2023-11-22T05:45:02;7.20;;;3.17;;
74612;SDS011;63119;51.788;8.824;2023-11-22T05:47:28;6.95;;;3.38;;
74612;SDS011;63119;51.788;8.824;2023-11-22T05:49:54;7.25;;;3.95;;
74612;SDS011;63119;51.788;8.824;2023-11-22T05:52:19;7.87;;;3.57;;
74612;SDS011;63119;51.788;8.824;2023-11-22T05:54:45;7.63;;;3.50;;
74612;SDS011;63119;51.788;8.824;2023-11-22T05:57:12;8.30;;;3.40;;
74612;SDS011;63119;51.788;8.824;2023-11-22T05:59:37;7.37;;;3.67;;
74612;SDS011;63119;51.788;8.824;2023-11-22T06:02:02;6.47;;;3.40;;
74612;SDS011;63119;51.788;8.824;2023-11-22T06:04:27;10.35;;;3.58;;
74612;SDS011;63119;51.788;8.824;2023-11-22T06:06:53;5.73;;;3.07;;
74612;SDS011;63119;51.788;8.824;2023-11-22T06:09:18;8.23;;;3.93;;
74612;SDS011;63119;51.788;8.824;2023-11-22T06:11:43;6.85;;;3.63;;
74612;SDS011;63119;51.788;8.824;2023-11-22T06:14:09;5.72;;;3.17;;
74612;SDS011;63119;51.788;8.824;2023-11-22T06:16:34;5.37;;;3.03;;
74612;SDS011;63119;51.788;8.824;2023-11-22T06:18:59;5.37;;;3.50;;
74612;SDS011;63119;51.788;8.824;2023-11-22T06:21:25;11.93;;;4.22;;
74612;SDS011;63119;51.788;8.824;2023-11-22T06:23:52;6.78;;;3.60;;
74612;SDS011;63119;51.788;8.824;2023-11-22T06:26:17;6.70;;;4.10;;
74612;SDS011;63119;51.788;8.824;2023-11-22T06:28:42;8.13;;;3.47;;
74612;SDS011;63119;51.788;8.824;2023-11-22T06:31:10;8.73;;;3.92;;
74612;SDS011;63119;51.788;8.824;2023-11-22T06:33:36;12.87;;;3.37;;
74612;SDS011;63119;51.788;8.824;2023-11-22T06:36:01;5.72;;;3.17;;
74612;SDS011;63119;51.788;8.824;2023-11-22T06:38:26;8.60;;;3.85;;
74612;SDS011;63119;51.788;8.824;2023-11-22T06:40:53;8.40;;;3.17;;
74612;SDS011;63119;51.788;8.824;2023-11-22T06:43:18;7.63;;;3.43;;
74612;SDS011;63119;51.788;8.824;2023-11-22T06:45:43;6.93;;;3.00;;
74612;SDS011;63119;51.788;8.824;2023-11-22T06:48:09;6.18;;;3.13;;
74612;SDS011;63119;51.788;8.824;2023-11-22T06:50:35;9.23;;;4.20;;
74612;SDS011;63119;51.788;8.824;2023-11-22T06:53:00;8.57;;;3.80;;
74612;SDS011;63119;51.788;8.824;2023-11-22T06:55:28;8.20;;;3.80;;
74612;SDS011;63119;51.788;8.824;2023-11-22T06:57:53;8.47;;;3.67;;
74612;SDS011;63119;51.788;8.824;2023-11-22T07:00:19;5.35;;;3.35;;
74612;SDS011;63119;51.788;8.824;2023-11-22T07:02:45;5.57;;;3.30;;
74612;SDS011;63119;51.788;8.824;2023-11-22T07:05:10;9.13;;;3.03;;
74612;SDS011;63119;51.788;8.824;2023-11-22T07:07:36;5.20;;;2.43;;
74612;SDS011;63119;51.788;8.824;2023-11-22T07:10:02;7.13;;;3.13;;
74612;SDS011;63119;51.788;8.824;2023-11-22T07:12:30;5.78;;;2.85;;
74612;SDS011;63119;51.788;8.824;2023-11-22T07:14:55;6.30;;;2.90;;
74612;SDS011;63119;51.788;8.824;2023-11-22T07:17:21;5.60;;;2.37;;
74612;SDS011;63119;51.788;8.824;2023-11-22T07:19:47;7.00;;;2.85;;
74612;SDS011;63119;51.788;8.824;2023-11-22T07:22:13;7.38;;;2.70;;
74612;SDS011;63119;51.788;8.824;2023-11-22T07:24:43;8.73;;;3.50;;
74612;SDS011;63119;51.788;8.824;2023-11-22T07:27:19;7.55;;;3.58;;
74612;SDS011;63119;51.788;8.824;2023-11-22T07:29:45;9.68;;;3.63;;
74612;SDS011;63119;51.788;8.824;2023-11-22T07:32:11;11.48;;;4.70;;
74612;SDS011;63119;51.788;8.824;2023-11-22T07:34:38;12.18;;;5.45;;
74612;SDS011;63119;51.788;8.824;2023-11-22T07:37:04;6.97;;;4.25;;
74612;SDS011;63119;51.788;8.824;2023-11-22T07:39:32;6.80;;;3.63;;
74612;SDS011;63119;51.788;8.824;2023-11-22T07:41:58;8.27;;;3.50;;
74612;SDS011;63119;51.788;8.824;2023-11-22T07:44:23;8.30;;;4.17;;
74612;SDS011;63119;51.788;8.824;2023-11-22T07:46:49;5.47;;;3.58;;
74612;SDS011;63119;51.788;8.824;2023-11-22T07:49:16;8.77;;;4.07;;
74612;SDS011;63119;51.788;8.824;2023-11-22T07:51:43;6.63;;;3.15;;
74612;SDS011;63119;51.788;8.824;2023-11-22T07:54:10;5.38;;;3.25;;
74612;SDS011;63119;51.788;8.824;2023-11-22T07:56:40;9.00;;;3.50;;
74612;SDS011;63119;51.788;8.824;2023-11-22T07:59:08;12.05;;;4.20;;
74612;SDS011;63119;51.788;8.824;2023-11-22T08:01:33;8.50;;;4.38;;
74612;SDS011;63119;51.788;8.824;2023-11-22T08:03:58;6.10;;;3.42;;
74612;SDS011;63119;51.788;8.824;2023-11-22T08:06:24;7.77;;;3.13;;
74612;SDS011;63119;51.788;8.824;2023-11-22T08:08:51;5.20;;;2.90;;
74612;SDS011;63119;51.788;8.824;2023-11-22T08:11:18;5.35;;;3.10;;
74612;SDS011;63119;51.788;8.824;2023-11-22T08:13:44;9.15;;;3.22;;
74612;SDS011;63119;51.788;8.824;2023-11-22T08:16:10;8.00;;;3.05;;
74612;SDS011;63119;51.788;8.824;2023-11-22T08:18:38;8.60;;;3.15;;
74612;SDS011;63119;51.788;8.824;2023-11-22T08:21:04;5.30;;;2.90;;
74612;SDS011;63119;51.788;8.824;2023-11-22T08:23:29;4.72;;;2.63;;
74612;SDS011;63119;51.788;8.824;2023-11-22T08:25:56;8.30;;;3.85;;
74612;SDS011;63119;51.788;8.824;2023-11-22T08:28:22;10.48;;;6.05;;
74612;SDS011;63119;51.788;8.824;2023-11-22T08:30:48;6.30;;;3.80;;
74612;SDS011;63119;51.788;8.824;2023-11-22T08:33:13;7.43;;;3.78;;
74612;SDS011;63119;51.788;8.824;2023-11-22T08:35:38;6.37;;;3.23;;
74612;SDS011;63119;51.788;8.824;2023-11-22T08:38:04;7.23;;;3.13;;
74612;SDS011;63119;51.788;8.824;2023-11-22T08:40:33;7.55;;;3.45;;
74612;SDS011;63119;51.788;8.824;2023-11-22T08:43:01;5.53;;;3.22;;
74612;SDS011;63119;51.788;8.824;2023-11-22T08:45:29;4.10;;;2.45;;
74612;SDS011;63119;51.788;8.824;2023-11-22T08:47:54;4.43;;;2.00;;
74612;SDS011;63119;51.788;8.824;2023-11-22T08:50:20;6.10;;;2.20;;
74612;SDS011;63119;51.788;8.824;2023-11-22T08:52:46;32.42;;;10.13;;
74612;SDS011;63119;51.788;8.824;2023-11-22T08:55:12;8.15;;;3.35;;
74612;SDS011;63119;51.788;8.824;2023-11-22T08:57:37;4.60;;;1.67;;
74612;SDS011;63119;51.788;8.824;2023-11-22T09:00:03;6.97;;;3.05;;
74612;SDS011;63119;51.788;8.824;2023-11-22T09:02:31;5.93;;;3.20;;
74612;SDS011;63119;51.788;8.824;2023-11-22T09:04:57;5.13;;;3.30;;
74612;SDS011;63119;51.788;8.824;2023-11-22T09:07:22;5.03;;;3.30;;
74612;SDS011;63119;51.788;8.824;2023-11-22T09:09:49;9.00;;;3.97;;
74612;SDS011;63119;51.788;8.824;2023-11-22T09:12:15;7.18;;;4.40;;
74612;SDS011;63119;51.788;8.824;2023-11-22T09:14:41;5.70;;;3.00;;
74612;SDS011;63119;51.788;8.824;2023-11-22T09:17:07;6.27;;;2.70;;
74612;SDS011;63119;51.788;8.824;2023-11-22T09:19:34;6.80;;;4.53;;
74612;SDS011;63119;51.788;8.824;2023-11-22T09:22:00;7.97;;;4.45;;
74612;SDS011;63119;51.788;8.824;2023-11-22T09:24:26;7.40;;;3.40;;
74612;SDS011;63119;51.788;8.824;2023-11-22T09:26:51;7.05;;;4.45;;
74612;SDS011;63119;51.788;8.824;2023-11-22T09:29:17;7.60;;;2.97;;
74612;SDS011;63119;51.788;8.824;2023-11-22T09:31:43;6.18;;;3.10;;
74612;SDS011;63119;51.788;8.824;2023-11-22T09:34:11;8.95;;;5.18;;
74612;SDS011;63119;51.788;8.824;2023-11-22T09:36:36;6.03;;;3.40;;
74612;SDS011;63119;51.788;8.824;2023-11-22T09:39:02;4.82;;;2.97;;
74612;SDS011;63119;51.788;8.824;2023-11-22T09:41:28;5.07;;;3.28;;
74612;SDS011;63119;51.788;8.824;2023-11-22T09:43:53;6.03;;;2.92;;
74612;SDS011;63119;51.788;8.824;2023-11-22T09:46:20;4.30;;;2.50;;
74612;SDS011;63119;51.788;8.824;2023-11-22T09:48:48;6.68;;;2.33;;
74612;SDS011;63119;51.788;8.824;2023-11-22T09:51:26;3.33;;;2.00;;
74612;SDS011;63119;51.788;8.824;2023-11-22T09:54:03;3.45;;;1.80;;
74612;SDS011;63119;51.788;8.824;2023-11-22T09:56:32;5.40;;;2.20;;
74612;SDS011;63119;51.788;8.824;2023-11-22T09:58:59;3.97;;;2.10;;
74612;SDS011;63119;51.788;8.824;2023-11-22T10:01:28;3.65;;;2.10;;
74612;SDS011;63119;51.788;8.824;2023-11-22T10:03:55;5.22;;;1.92;;
74612;SDS011;63119;51.788;8.824;2023-11-22T10:06:22;4.45;;;2.00;;
74612;SDS011;63119;51.788;8.824;2023-11-22T10:08:48;4.78;;;1.83;;
74612;SDS011;63119;51.788;8.824;2023-11-22T10:11:17;3.35;;;2.20;;
74612;SDS011;63119;51.788;8.824;2023-11-22T10:13:43;4.78;;;2.60;;
74612;SDS011;63119;51.788;8.824;2023-11-22T10:16:12;4.53;;;2.90;;
74612;SDS011;63119;51.788;8.824;2023-11-22T10:18:47;3.25;;;2.08;;
74612;SDS011;63119;51.788;8.824;2023-11-22T10:21:32;4.93;;;2.38;;
74612;SDS011;63119;51.788;8.824;2023-11-22T10:23:59;4.65;;;2.20;;
74612;SDS011;63119;51.788;8.824;2023-11-22T10:26:29;5.10;;;2.72;;
74612;SDS011;63119;51.788;8.824;2023-11-22T10:28:55;5.35;;;2.67;;
74612;SDS011;63119;51.788;8.824;2023-11-22T10:31:22;3.40;;;2.00;;
74612;SDS011;63119;51.788;8.824;2023-11-22T10:33:48;2.92;;;1.60;;
74612;SDS011;63119;51.788;8.824;2023-11-22T10:36:14;6.03;;;2.00;;
74612;SDS011;63119;51.788;8.824;2023-11-22T10:38:40;2.63;;;1.70;;
74612;SDS011;63119;51.788;8.824;2023-11-22T10:41:11;2.30;;;1.42;;
74612;SDS011;63119;51.788;8.824;2023-11-22T10:43:38;3.38;;;1.40;;
74612;SDS011;63119;51.788;8.824;2023-11-22T10:46:04;3.13;;;1.60;;
74612;SDS011;63119;51.788;8.824;2023-11-22T10:48:31;4.97;;;1.67;;
74612;SDS011;63119;51.788;8.824;2023-11-22T10:51:01;4.07;;;2.15;;
74612;SDS011;63119;51.788;8.824;2023-11-22T10:53:32;3.67;;;1.80;;
74612;SDS011;63119;51.788;8.824;2023-11-22T10:56:02;1.98;;;1.30;;
74612;SDS011;63119;51.788;8.824;2023-11-22T10:58:50;2.65;;;1.60;;
74612;SDS011;63119;51.788;8.824;2023-11-22T11:01:17;2.22;;;1.48;;
74612;SDS011;63119;51.788;8.824;2023-11-22T11:06:33;3.03;;;1.60;;
74612;SDS011;63119;51.788;8.824;2023-11-22T11:09:01;2.03;;;1.33;;
74612;SDS011;63119;51.788;8.824;2023-11-22T11:11:32;3.58;;;1.90;;
74612;SDS011;63119;51.788;8.824;2023-11-22T11:16:24;3.25;;;1.48;;
74612;SDS011;63119;51.788;8.824;2023-11-22T11:18:50;2.67;;;1.30;;
74612;SDS011;63119;51.788;8.824;2023-11-22T11:21:16;2.15;;;1.20;;
74612;SDS011;63119;51.788;8.824;2023-11-22T11:23:41;2.42;;;1.35;;
74612;SDS011;63119;51.788;8.824;2023-11-22T11:26:18;3.85;;;1.67;;
74612;SDS011;63119;51.788;8.824;2023-11-22T11:28:49;3.33;;;1.55;;
74612;SDS011;63119;51.788;8.824;2023-11-22T11:31:16;3.45;;;1.73;;
74612;SDS011;63119;51.788;8.824;2023-11-22T11:38:46;5.85;;;1.75;;
74612;SDS011;63119;51.788;8.824;2023-11-22T11:41:14;4.43;;;1.73;;
74612;SDS011;63119;51.788;8.824;2023-11-22T11:43:43;5.30;;;1.63;;
74612;SDS011;63119;51.788;8.824;2023-11-22T11:46:11;2.78;;;1.45;;
74612;SDS011;63119;51.788;8.824;2023-11-22T11:48:37;3.95;;;1.85;;
74612;SDS011;63119;51.788;8.824;2023-11-22T11:51:02;3.55;;;1.48;;
74612;SDS011;63119;51.788;8.824;2023-11-22T11:53:27;6.00;;;1.70;;
74612;SDS011;63119;51.788;8.824;2023-11-22T11:55:56;5.83;;;1.70;;
74612;SDS011;63119;51.788;8.824;2023-11-22T11:58:22;3.30;;;1.95;;
74612;SDS011;63119;51.788;8.824;2023-11-22T12:00:49;4.57;;;1.77;;
74612;SDS011;63119;51.788;8.824;2023-11-22T12:03:17;4.25;;;1.70;;
74612;SDS011;63119;51.788;8.824;2023-11-22T12:05:45;4.10;;;1.83;;
74612;SDS011;63119;51.788;8.824;2023-11-22T12:08:11;4.32;;;1.60;;
74612;SDS011;63119;51.788;8.824;2023-11-22T12:10:40;3.80;;;2.15;;
74612;SDS011;63119;51.788;8.824;2023-11-22T12:13:06;3.55;;;2.10;;
74612;SDS011;63119;51.788;8.824;2023-11-22T12:15:33;3.45;;;1.67;;
74612;SDS011;63119;51.788;8.824;2023-11-22T12:17:58;6.18;;;2.67;;
74612;SDS011;63119;51.788;8.824;2023-11-22T12:20:24;3.25;;;2.10;;
74612;SDS011;63119;51.788;8.824;2023-11-22T12:22:51;4.70;;;1.95;;
74612;SDS011;63119;51.788;8.824;2023-11-22T12:25:16;3.65;;;1.98;;
74612;SDS011;63119;51.788;8.824;2023-11-22T12:27:43;4.13;;;2.10;;
74612;SDS011;63119;51.788;8.824;2023-11-22T12:30:31;4.70;;;2.17;;
74612;SDS011;63119;51.788;8.824;2023-11-22T12:35:34;3.35;;;1.77;;
74612;SDS011;63119;51.788;8.824;2023-11-22T12:38:00;3.50;;;1.98;;
74612;SDS011;63119;51.788;8.824;2023-11-22T12:40:29;3.38;;;1.80;;
74612;SDS011;63119;51.788;8.824;2023-11-22T12:43:01;4.72;;;2.17;;
74612;SDS011;63119;51.788;8.824;2023-11-22T12:45:28;4.13;;;2.08;;
74612;SDS011;63119;51.788;8.824;2023-11-22T12:47:55;4.65;;;1.98;;
74612;SDS011;63119;51.788;8.824;2023-11-22T12:50:33;3.80;;;1.63;;
74612;SDS011;63119;51.788;8.824;2023-11-22T12:53:11;5.70;;;2.47;;
74612;SDS011;63119;51.788;8.824;2023-11-22T12:55:38;3.70;;;2.17;;
74612;SDS011;63119;51.788;8.824;2023-11-22T12:58:08;5.35;;;2.20;;
74612;SDS011;63119;51.788;8.824;2023-11-22T13:00:33;5.97;;;2.30;;
74612;SDS011;63119;51.788;8.824;2023-11-22T13:02:58;8.57;;;3.97;;
74612;SDS011;63119;51.788;8.824;2023-11-22T13:05:24;6.35;;;3.00;;
74612;SDS011;63119;51.788;8.824;2023-11-22T13:07:49;3.13;;;1.93;;
74612;SDS011;63119;51.788;8.824;2023-11-22T13:10:15;5.85;;;2.90;;
74612;SDS011;63119;51.788;8.824;2023-11-22T13:12:42;5.63;;;2.17;;
74612;SDS011;63119;51.788;8.824;2023-11-22T13:15:09;6.00;;;2.70;;
74612;SDS011;63119;51.788;8.824;2023-11-22T13:17:36;5.55;;;2.95;;
74612;SDS011;63119;51.788;8.824;2023-11-22T13:20:02;4.47;;;2.45;;
74612;SDS011;63119;51.788;8.824;2023-11-22T13:22:28;7.55;;;4.70;;
74612;SDS011;63119;51.788;8.824;2023-11-22T13:24:53;7.47;;;4.43;;
74612;SDS011;63119;51.788;8.824;2023-11-22T13:27:18;6.47;;;2.80;;
74612;SDS011;63119;51.788;8.824;2023-11-22T13:29:43;6.03;;;2.60;;
74612;SDS011;63119;51.788;8.824;2023-11-22T13:32:09;5.78;;;2.92;;
74612;SDS011;63119;51.788;8.824;2023-11-22T13:34:34;6.00;;;3.00;;
74612;SDS011;63119;51.788;8.824;2023-11-22T13:36:59;7.90;;;3.40;;
74612;SDS011;63119;51.788;8.824;2023-11-22T13:39:25;6.40;;;3.30;;
74612;SDS011;63119;51.788;8.824;2023-11-22T13:41:51;5.32;;;3.35;;
74612;SDS011;63119;51.788;8.824;2023-11-22T13:44:16;5.60;;;3.47;;
74612;SDS011;63119;51.788;8.824;2023-11-22T13:46:43;5.35;;;2.92;;
74612;SDS011;63119;51.788;8.824;2023-11-22T13:49:08;14.77;;;4.00;;
74612;SDS011;63119;51.788;8.824;2023-11-22T13:51:33;7.03;;;3.20;;
74612;SDS011;63119;51.788;8.824;2023-11-22T13:53:59;6.78;;;3.03;;
74612;SDS011;63119;51.788;8.824;2023-11-22T13:56:25;8.73;;;3.00;;
74612;SDS011;63119;51.788;8.824;2023-11-22T13:58:50;7.93;;;4.17;;
74612;SDS011;63119;51.788;8.824;2023-11-22T14:01:15;6.93;;;3.00;;
74612;SDS011;63119;51.788;8.824;2023-11-22T14:03:46;4.60;;;2.85;;
74612;SDS011;63119;51.788;8.824;2023-11-22T14:06:12;4.85;;;2.95;;
74612;SDS011;63119;51.788;8.824;2023-11-22T14:08:41;5.40;;;3.10;;
74612;SDS011;63119;51.788;8.824;2023-11-22T14:11:06;8.18;;;2.63;;
74612;SDS011;63119;51.788;8.824;2023-11-22T14:13:32;9.90;;;5.53;;
74612;SDS011;63119;51.788;8.824;2023-11-22T14:15:57;12.13;;;6.30;;
74612;SDS011;63119;51.788;8.824;2023-11-22T14:18:23;26.65;;;13.63;;
74612;SDS011;63119;51.788;8.824;2023-11-22T14:20:50;12.77;;;6.72;;
74612;SDS011;63119;51.788;8.824;2023-11-22T14:23:15;8.17;;;5.03;;
74612;SDS011;63119;51.788;8.824;2023-11-22T14:25:42;8.32;;;5.35;;
74612;SDS011;63119;51.788;8.824;2023-11-22T14:28:07;7.47;;;4.57;;
74612;SDS011;63119;51.788;8.824;2023-11-22T14:30:33;6.97;;;3.22;;
74612;SDS011;63119;51.788;8.824;2023-11-22T14:33:01;6.38;;;3.55;;
74612;SDS011;63119;51.788;8.824;2023-11-22T14:35:31;6.45;;;3.72;;
74612;SDS011;63119;51.788;8.824;2023-11-22T14:37:56;7.60;;;3.57;;
74612;SDS011;63119;51.788;8.824;2023-11-22T14:40:23;6.20;;;4.03;;
74612;SDS011;63119;51.788;8.824;2023-11-22T14:42:48;5.40;;;3.08;;
74612;SDS011;63119;51.788;8.824;2023-11-22T14:45:17;5.63;;;3.17;;
74612;SDS011;63119;51.788;8.824;2023-11-22T14:47:44;5.93;;;3.13;;
74612;SDS011;63119;51.788;8.824;2023-11-22T14:50:11;5.65;;;3.00;;
74612;SDS011;63119;51.788;8.824;2023-11-22T14:52:36;6.70;;;3.28;;
74612;SDS011;63119;51.788;8.824;2023-11-22T14:55:02;6.15;;;3.00;;